sensor_id;sensor_type;location;lat;lon;timestamp;temperature;humidity
70246;SHT30;57637;49.272;8.590;2023-05-01T00:01:32;11.01;74.75
70246;SHT30;57637;49.272;8.590;2023-05-01T00:03:57;11.00;74.85
70246;SHT30;57637;49.272;8.590;2023-05-01T00:06:23;11.05;74.51
70246;SHT30;57637;49.272;8.590;2023-05-01T00:08:48;11.01;74.52
70246;SHT30;57637;49.272;8.590;2023-05-01T00:11:13;10.98;74.93
70246;SHT30;57637;49.272;8.590;2023-05-01T00:13:39;10.94;74.92
70246;SHT30;57637;49.272;8.590;2023-05-01T00:16:08;10.95;74.92
70246;SHT30;57637;49.272;8.590;2023-05-01T00:18:34;10.97;75.15
70246;SHT30;57637;49.272;8.590;2023-05-01T00:21:00;10.94;75.20
70246;SHT30;57637;49.272;8.590;2023-05-01T00:23:26;10.91;75.23
70246;SHT30;57637;49.272;8.590;2023-05-01T00:25:52;10.91;75.26
70246;SHT30;57637;49.272;8.590;2023-05-01T00:28:17;10.88;75.32
70246;SHT30;57637;49.272;8.590;2023-05-01T00:30:43;10.87;75.21
70246;SHT30;57637;49.272;8.590;2023-05-01T00:33:09;10.90;75.07
70246;SHT30;57637;49.272;8.590;2023-05-01T00:35:35;10.87;75.13
70246;SHT30;57637;49.272;8.590;2023-05-01T00:38:00;10.90;75.19
70246;SHT30;57637;49.272;8.590;2023-05-01T00:40:26;10.90;74.95
70246;SHT30;57637;49.272;8.590;2023-05-01T00:42:52;10.85;75.04
70246;SHT30;57637;49.272;8.590;2023-05-01T00:45:17;10.90;74.73
70246;SHT30;57637;49.272;8.590;2023-05-01T00:47:43;10.91;74.76
70246;SHT30;57637;49.272;8.590;2023-05-01T00:50:08;10.94;74.49
70246;SHT30;57637;49.272;8.590;2023-05-01T00:52:34;10.90;74.64
70246;SHT30;57637;49.272;8.590;2023-05-01T00:55:00;10.87;74.86
70246;SHT30;57637;49.272;8.590;2023-05-01T00:57:25;10.93;74.44
70246;SHT30;57637;49.272;8.590;2023-05-01T00:59:51;10.93;74.36
70246;SHT30;57637;49.272;8.590;2023-05-01T01:02:16;10.91;74.39
70246;SHT30;57637;49.272;8.590;2023-05-01T01:04:43;10.91;74.28
70246;SHT30;57637;49.272;8.590;2023-05-01T01:12:45;11.03;73.38
70246;SHT30;57637;49.272;8.590;2023-05-01T01:18:22;11.03;73.19
70246;SHT30;57637;49.272;8.590;2023-05-01T01:21:03;11.07;72.86
70246;SHT30;57637;49.272;8.590;2023-05-01T01:32:18;11.07;72.54
70246;SHT30;57637;49.272;8.590;2023-05-01T01:35:13;11.04;72.74
70246;SHT30;57637;49.272;8.590;2023-05-01T01:37:47;11.07;72.36
70246;SHT30;57637;49.272;8.590;2023-05-01T01:40:24;11.03;72.44
70246;SHT30;57637;49.272;8.590;2023-05-01T01:43:02;11.10;72.20
70246;SHT30;57637;49.272;8.590;2023-05-01T01:45:38;11.08;72.17
70246;SHT30;57637;49.272;8.590;2023-05-01T01:48:07;11.04;72.49
70246;SHT30;57637;49.272;8.590;2023-05-01T01:50:35;11.07;72.08
70246;SHT30;57637;49.272;8.590;2023-05-01T01:53:03;11.07;72.15
70246;SHT30;57637;49.272;8.590;2023-05-01T01:55:30;11.10;71.95
70246;SHT30;57637;49.272;8.590;2023-05-01T01:57:59;11.10;72.03
70246;SHT30;57637;49.272;8.590;2023-05-01T02:00:26;11.07;72.03
70246;SHT30;57637;49.272;8.590;2023-05-01T02:02:53;11.01;72.37
70246;SHT30;57637;49.272;8.590;2023-05-01T02:05:20;10.98;72.56
70246;SHT30;57637;49.272;8.590;2023-05-01T02:07:47;10.94;72.59
70246;SHT30;57637;49.272;8.590;2023-05-01T02:10:14;10.93;72.57
70246;SHT30;57637;49.272;8.590;2023-05-01T02:12:50;10.93;72.75
70246;SHT30;57637;49.272;8.590;2023-05-01T02:15:16;10.91;72.59
70246;SHT30;57637;49.272;8.590;2023-05-01T02:17:43;10.91;72.45
70246;SHT30;57637;49.272;8.590;2023-05-01T02:20:10;10.93;72.29
70246;SHT30;57637;49.272;8.590;2023-05-01T02:22:37;10.91;72.49
70246;SHT30;57637;49.272;8.590;2023-05-01T02:25:06;10.90;72.63
70246;SHT30;57637;49.272;8.590;2023-05-01T02:27:38;10.83;72.76
70246;SHT30;57637;49.272;8.590;2023-05-01T02:30:22;10.80;72.96
70246;SHT30;57637;49.272;8.590;2023-05-01T02:32:48;10.80;72.83
70246;SHT30;57637;49.272;8.590;2023-05-01T02:35:13;10.78;72.81
70246;SHT30;57637;49.272;8.590;2023-05-01T02:37:39;10.74;73.04
70246;SHT30;57637;49.272;8.590;2023-05-01T02:40:04;10.73;72.96
70246;SHT30;57637;49.272;8.590;2023-05-01T02:42:31;10.73;73.01
70246;SHT30;57637;49.272;8.590;2023-05-01T02:45:00;10.73;73.10
70246;SHT30;57637;49.272;8.590;2023-05-01T02:47:29;10.70;72.97
70246;SHT30;57637;49.272;8.590;2023-05-01T02:49:56;10.75;72.88
70246;SHT30;57637;49.272;8.590;2023-05-01T02:52:23;10.75;72.82
70246;SHT30;57637;49.272;8.590;2023-05-01T02:54:49;10.77;72.65
70246;SHT30;57637;49.272;8.590;2023-05-01T02:57:15;10.81;72.72
70246;SHT30;57637;49.272;8.590;2023-05-01T02:59:42;10.85;72.39
70246;SHT30;57637;49.272;8.590;2023-05-01T03:02:07;10.91;72.13
70246;SHT30;57637;49.272;8.590;2023-05-01T03:04:32;10.83;72.67
70246;SHT30;57637;49.272;8.590;2023-05-01T03:06:58;10.81;72.65
70246;SHT30;57637;49.272;8.590;2023-05-01T03:09:23;10.83;72.56
70246;SHT30;57637;49.272;8.590;2023-05-01T03:11:49;10.81;72.41
70246;SHT30;57637;49.272;8.590;2023-05-01T03:14:15;10.83;72.45
70246;SHT30;57637;49.272;8.590;2023-05-01T03:16:40;10.81;72.46
70246;SHT30;57637;49.272;8.590;2023-05-01T03:19:06;10.81;72.24
70246;SHT30;57637;49.272;8.590;2023-05-01T03:21:31;10.83;72.21
70246;SHT30;57637;49.272;8.590;2023-05-01T03:23:57;10.83;72.27
70246;SHT30;57637;49.272;8.590;2023-05-01T03:26:23;10.84;72.36
70246;SHT30;57637;49.272;8.590;2023-05-01T03:28:49;10.85;72.25
70246;SHT30;57637;49.272;8.590;2023-05-01T03:31:15;10.80;72.33
70246;SHT30;57637;49.272;8.590;2023-05-01T03:33:40;10.84;72.35
70246;SHT30;57637;49.272;8.590;2023-05-01T03:36:06;10.78;72.56
70246;SHT30;57637;49.272;8.590;2023-05-01T03:38:34;10.84;72.09
70246;SHT30;57637;49.272;8.590;2023-05-01T03:40:59;10.81;72.30
70246;SHT30;57637;49.272;8.590;2023-05-01T03:43:24;10.78;72.39
70246;SHT30;57637;49.272;8.590;2023-05-01T03:45:50;10.78;72.03
70246;SHT30;57637;49.272;8.590;2023-05-01T03:48:19;10.83;71.79
70246;SHT30;57637;49.272;8.590;2023-05-01T03:50:44;10.84;71.79
70246;SHT30;57637;49.272;8.590;2023-05-01T03:53:11;10.83;71.81
70246;SHT30;57637;49.272;8.590;2023-05-01T03:55:37;10.83;71.93
70246;SHT30;57637;49.272;8.590;2023-05-01T03:58:03;10.80;72.15
70246;SHT30;57637;49.272;8.590;2023-05-01T04:00:29;10.78;72.39
70246;SHT30;57637;49.272;8.590;2023-05-01T04:02:56;10.75;72.46
70246;SHT30;57637;49.272;8.590;2023-05-01T04:05:21;10.74;72.26
70246;SHT30;57637;49.272;8.590;2023-05-01T04:07:47;10.77;72.52
70246;SHT30;57637;49.272;8.590;2023-05-01T04:10:12;10.77;72.32
70246;SHT30;57637;49.272;8.590;2023-05-01T04:12:37;10.75;72.41
70246;SHT30;57637;49.272;8.590;2023-05-01T04:15:03;10.75;72.36
70246;SHT30;57637;49.272;8.590;2023-05-01T04:17:28;10.75;72.32
70246;SHT30;57637;49.272;8.590;2023-05-01T04:19:54;10.77;72.52
70246;SHT30;57637;49.272;8.590;2023-05-01T04:22:22;10.75;72.53
70246;SHT30;57637;49.272;8.590;2023-05-01T04:24:48;10.75;72.39
70246;SHT30;57637;49.272;8.590;2023-05-01T04:27:13;10.75;72.69
70246;SHT30;57637;49.272;8.590;2023-05-01T04:29:39;10.75;72.37
70246;SHT30;57637;49.272;8.590;2023-05-01T04:32:05;10.74;72.70
70246;SHT30;57637;49.272;8.590;2023-05-01T04:34:31;10.77;72.38
70246;SHT30;57637;49.272;8.590;2023-05-01T04:36:57;10.77;72.56
70246;SHT30;57637;49.272;8.590;2023-05-01T04:39:22;10.80;72.52
70246;SHT30;57637;49.272;8.590;2023-05-01T04:41:48;10.77;72.62
70246;SHT30;57637;49.272;8.590;2023-05-01T04:44:13;10.74;72.65
70246;SHT30;57637;49.272;8.590;2023-05-01T04:46:39;10.75;72.79
70246;SHT30;57637;49.272;8.590;2023-05-01T04:49:04;10.78;72.54
70246;SHT30;57637;49.272;8.590;2023-05-01T04:51:30;10.78;72.63
70246;SHT30;57637;49.272;8.590;2023-05-01T04:53:55;10.81;72.68
70246;SHT30;57637;49.272;8.590;2023-05-01T04:56:24;10.77;72.72
70246;SHT30;57637;49.272;8.590;2023-05-01T04:58:50;10.78;72.82
70246;SHT30;57637;49.272;8.590;2023-05-01T05:01:16;10.80;72.88
70246;SHT30;57637;49.272;8.590;2023-05-01T05:03:41;10.74;72.71
70246;SHT30;57637;49.272;8.590;2023-05-01T05:06:07;10.81;72.83
70246;SHT30;57637;49.272;8.590;2023-05-01T05:08:32;10.81;72.73
70246;SHT30;57637;49.272;8.590;2023-05-01T05:10:58;10.87;72.55
70246;SHT30;57637;49.272;8.590;2023-05-01T05:13:24;10.87;72.46
70246;SHT30;57637;49.272;8.590;2023-05-01T05:15:50;10.85;72.21
70246;SHT30;57637;49.272;8.590;2023-05-01T05:18:18;10.94;72.41
70246;SHT30;57637;49.272;8.590;2023-05-01T05:20:43;10.91;72.59
70246;SHT30;57637;49.272;8.590;2023-05-01T05:23:09;10.95;72.52
70246;SHT30;57637;49.272;8.590;2023-05-01T05:25:34;11.07;71.88
70246;SHT30;57637;49.272;8.590;2023-05-01T05:28:00;11.15;71.79
70246;SHT30;57637;49.272;8.590;2023-05-01T05:30:25;11.34;71.78
70246;SHT30;57637;49.272;8.590;2023-05-01T05:32:51;11.40;71.12
70246;SHT30;57637;49.272;8.590;2023-05-01T05:35:17;11.36;70.49
70246;SHT30;57637;49.272;8.590;2023-05-01T05:37:42;11.46;70.68
70246;SHT30;57637;49.272;8.590;2023-05-01T05:40:08;11.55;70.48
70246;SHT30;57637;49.272;8.590;2023-05-01T05:42:33;11.58;70.03
70246;SHT30;57637;49.272;8.590;2023-05-01T05:44:59;11.69;70.02
70246;SHT30;57637;49.272;8.590;2023-05-01T05:47:24;11.86;69.49
70246;SHT30;57637;49.272;8.590;2023-05-01T05:49:49;11.77;70.00
70246;SHT30;57637;49.272;8.590;2023-05-01T05:52:15;11.83;69.42
70246;SHT30;57637;49.272;8.590;2023-05-01T05:54:40;11.75;69.21
70246;SHT30;57637;49.272;8.590;2023-05-01T05:57:06;11.93;69.41
70246;SHT30;57637;49.272;8.590;2023-05-01T05:59:31;12.04;68.53
70246;SHT30;57637;49.272;8.590;2023-05-01T06:01:56;12.13;68.75
70246;SHT30;57637;49.272;8.590;2023-05-01T06:04:22;12.06;68.28
70246;SHT30;57637;49.272;8.590;2023-05-01T06:06:48;12.13;68.75
70246;SHT30;57637;49.272;8.590;2023-05-01T06:09:13;12.23;68.72
70246;SHT30;57637;49.272;8.590;2023-05-01T06:11:41;12.34;67.95
70246;SHT30;57637;49.272;8.590;2023-05-01T06:14:06;12.38;68.07
70246;SHT30;57637;49.272;8.590;2023-05-01T06:16:32;12.50;68.25
70246;SHT30;57637;49.272;8.590;2023-05-01T06:18:58;12.33;67.96
70246;SHT30;57637;49.272;8.590;2023-05-01T06:21:23;12.34;68.46
70246;SHT30;57637;49.272;8.590;2023-05-01T06:23:49;12.26;68.41
70246;SHT30;57637;49.272;8.590;2023-05-01T06:26:14;12.45;68.66
70246;SHT30;57637;49.272;8.590;2023-05-01T06:28:40;12.52;67.97
70246;SHT30;57637;49.272;8.590;2023-05-01T06:31:05;12.33;68.39
70246;SHT30;57637;49.272;8.590;2023-05-01T06:33:31;12.65;68.15
70246;SHT30;57637;49.272;8.590;2023-05-01T06:35:56;12.55;68.20
70246;SHT30;57637;49.272;8.590;2023-05-01T06:38:24;12.69;68.15
70246;SHT30;57637;49.272;8.590;2023-05-01T06:40:50;12.52;67.68
70246;SHT30;57637;49.272;8.590;2023-05-01T06:43:16;12.62;67.50
70246;SHT30;57637;49.272;8.590;2023-05-01T06:45:41;12.80;67.90
70246;SHT30;57637;49.272;8.590;2023-05-01T06:48:06;12.44;67.43
70246;SHT30;57637;49.272;8.590;2023-05-01T06:50:32;12.51;67.36
70246;SHT30;57637;49.272;8.590;2023-05-01T06:52:57;12.40;67.75
70246;SHT30;57637;49.272;8.590;2023-05-01T06:55:24;12.50;67.75
70246;SHT30;57637;49.272;8.590;2023-05-01T06:57:50;12.72;67.54
70246;SHT30;57637;49.272;8.590;2023-05-01T07:00:16;12.68;67.27
70246;SHT30;57637;49.272;8.590;2023-05-01T07:02:43;12.68;66.77
70246;SHT30;57637;49.272;8.590;2023-05-01T07:05:09;12.72;67.04
70246;SHT30;57637;49.272;8.590;2023-05-01T07:07:34;12.89;66.90
70246;SHT30;57637;49.272;8.590;2023-05-01T07:10:00;12.91;66.58
70246;SHT30;57637;49.272;8.590;2023-05-01T07:12:26;12.89;66.89
70246;SHT30;57637;49.272;8.590;2023-05-01T07:14:53;13.03;66.68
70246;SHT30;57637;49.272;8.590;2023-05-01T07:17:20;12.93;67.11
70246;SHT30;57637;49.272;8.590;2023-05-01T07:19:46;12.88;67.10
70246;SHT30;57637;49.272;8.590;2023-05-01T07:22:11;12.91;67.04
70246;SHT30;57637;49.272;8.590;2023-05-01T07:24:37;12.96;66.91
70246;SHT30;57637;49.272;8.590;2023-05-01T07:27:02;12.82;67.57
70246;SHT30;57637;49.272;8.590;2023-05-01T07:29:27;13.06;67.66
70246;SHT30;57637;49.272;8.590;2023-05-01T07:31:53;12.82;66.31
70246;SHT30;57637;49.272;8.590;2023-05-01T07:34:19;12.85;66.84
70246;SHT30;57637;49.272;8.590;2023-05-01T07:36:45;13.01;66.90
70246;SHT30;57637;49.272;8.590;2023-05-01T07:39:10;12.93;66.58
70246;SHT30;57637;49.272;8.590;2023-05-01T07:41:36;13.03;66.47
70246;SHT30;57637;49.272;8.590;2023-05-01T07:44:01;12.98;66.27
70246;SHT30;57637;49.272;8.590;2023-05-01T07:46:27;12.81;66.46
70246;SHT30;57637;49.272;8.590;2023-05-01T07:48:52;12.91;66.44
70246;SHT30;57637;49.272;8.590;2023-05-01T07:51:18;12.72;66.74
70246;SHT30;57637;49.272;8.590;2023-05-01T07:53:43;12.75;67.11
70246;SHT30;57637;49.272;8.590;2023-05-01T07:56:10;12.78;66.85
70246;SHT30;57637;49.272;8.590;2023-05-01T07:58:36;12.87;67.28
70246;SHT30;57637;49.272;8.590;2023-05-01T08:01:01;12.85;67.43
70246;SHT30;57637;49.272;8.590;2023-05-01T08:03:28;13.13;67.35
70246;SHT30;57637;49.272;8.590;2023-05-01T08:05:54;12.99;67.66
70246;SHT30;57637;49.272;8.590;2023-05-01T08:08:20;12.78;67.86
70246;SHT30;57637;49.272;8.590;2023-05-01T08:10:46;13.01;68.13
70246;SHT30;57637;49.272;8.590;2023-05-01T08:13:11;13.08;68.06
70246;SHT30;57637;49.272;8.590;2023-05-01T08:15:37;13.01;67.75
70246;SHT30;57637;49.272;8.590;2023-05-01T08:18:03;13.03;67.07
70246;SHT30;57637;49.272;8.590;2023-05-01T08:20:31;12.99;67.54
70246;SHT30;57637;49.272;8.590;2023-05-01T08:22:56;13.03;67.56
70246;SHT30;57637;49.272;8.590;2023-05-01T08:25:22;13.06;67.50
70246;SHT30;57637;49.272;8.590;2023-05-01T08:27:47;13.29;67.02
70246;SHT30;57637;49.272;8.590;2023-05-01T08:30:13;13.38;66.66
70246;SHT30;57637;49.272;8.590;2023-05-01T08:32:38;13.18;66.87
70246;SHT30;57637;49.272;8.590;2023-05-01T08:35:04;13.18;66.84
70246;SHT30;57637;49.272;8.590;2023-05-01T08:37:29;13.75;66.43
70246;SHT30;57637;49.272;8.590;2023-05-01T08:39:55;13.81;65.77
70246;SHT30;57637;49.272;8.590;2023-05-01T08:42:20;13.85;66.23
70246;SHT30;57637;49.272;8.590;2023-05-01T08:44:46;13.87;66.18
70246;SHT30;57637;49.272;8.590;2023-05-01T08:49:39;13.94;65.21
70246;SHT30;57637;49.272;8.590;2023-05-01T08:52:05;14.29;65.85
70246;SHT30;57637;49.272;8.590;2023-05-01T08:54:31;14.28;64.36
70246;SHT30;57637;49.272;8.590;2023-05-01T08:57:00;14.22;64.69
70246;SHT30;57637;49.272;8.590;2023-05-01T08:59:33;14.85;63.11
70246;SHT30;57637;49.272;8.590;2023-05-01T09:02:00;15.33;62.76
70246;SHT30;57637;49.272;8.590;2023-05-01T09:04:31;15.38;62.05
70246;SHT30;57637;49.272;8.590;2023-05-01T09:06:58;15.38;60.65
70246;SHT30;57637;49.272;8.590;2023-05-01T09:09:26;15.10;60.57
70246;SHT30;57637;49.272;8.590;2023-05-01T09:11:55;15.33;61.68
70246;SHT30;57637;49.272;8.590;2023-05-01T09:14:24;15.24;61.93
70246;SHT30;57637;49.272;8.590;2023-05-01T09:16:50;15.51;61.32
70246;SHT30;57637;49.272;8.590;2023-05-01T09:19:15;15.75;60.46
70246;SHT30;57637;49.272;8.590;2023-05-01T09:21:41;15.54;59.87
70246;SHT30;57637;49.272;8.590;2023-05-01T09:24:07;15.09;61.04
70246;SHT30;57637;49.272;8.590;2023-05-01T09:26:32;15.10;61.59
70246;SHT30;57637;49.272;8.590;2023-05-01T09:29:00;15.26;62.28
70246;SHT30;57637;49.272;8.590;2023-05-01T09:31:27;15.34;62.53
70246;SHT30;57637;49.272;8.590;2023-05-01T09:33:57;15.37;61.14
70246;SHT30;57637;49.272;8.590;2023-05-01T09:36:24;15.24;61.37
70246;SHT30;57637;49.272;8.590;2023-05-01T09:38:51;15.48;60.75
70246;SHT30;57637;49.272;8.590;2023-05-01T09:41:16;15.74;60.69
70246;SHT30;57637;49.272;8.590;2023-05-01T09:43:48;15.90;59.58
70246;SHT30;57637;49.272;8.590;2023-05-01T09:46:16;16.77;58.52
70246;SHT30;57637;49.272;8.590;2023-05-01T09:48:55;16.94;57.26
70246;SHT30;57637;49.272;8.590;2023-05-01T09:53:53;16.02;59.75
70246;SHT30;57637;49.272;8.590;2023-05-01T09:56:26;16.34;59.56
70246;SHT30;57637;49.272;8.590;2023-05-01T09:58:56;16.11;59.56
70246;SHT30;57637;49.272;8.590;2023-05-01T10:01:36;16.95;58.29
70246;SHT30;57637;49.272;8.590;2023-05-01T10:04:03;17.44;57.32
70246;SHT30;57637;49.272;8.590;2023-05-01T10:06:28;17.68;55.48
70246;SHT30;57637;49.272;8.590;2023-05-01T10:08:54;17.78;54.65
70246;SHT30;57637;49.272;8.590;2023-05-01T10:11:19;17.46;56.73
70246;SHT30;57637;49.272;8.590;2023-05-01T10:14:03;17.56;56.95
70246;SHT30;57637;49.272;8.590;2023-05-01T10:16:32;18.05;55.38
70246;SHT30;57637;49.272;8.590;2023-05-01T10:18:58;17.88;54.72
70246;SHT30;57637;49.272;8.590;2023-05-01T10:21:24;16.91;55.96
70246;SHT30;57637;49.272;8.590;2023-05-01T10:23:50;16.55;58.07
70246;SHT30;57637;49.272;8.590;2023-05-01T10:26:17;17.07;57.32
70246;SHT30;57637;49.272;8.590;2023-05-01T10:28:43;17.21;56.69
70246;SHT30;57637;49.272;8.590;2023-05-01T10:31:10;17.62;56.38
70246;SHT30;57637;49.272;8.590;2023-05-01T10:33:41;16.76;57.87
70246;SHT30;57637;49.272;8.590;2023-05-01T10:36:10;16.99;57.87
70246;SHT30;57637;49.272;8.590;2023-05-01T10:38:39;17.14;56.28
70246;SHT30;57637;49.272;8.590;2023-05-01T10:41:09;16.95;58.06
70246;SHT30;57637;49.272;8.590;2023-05-01T10:43:35;17.49;58.65
70246;SHT30;57637;49.272;8.590;2023-05-01T10:51:12;18.14;56.22
70246;SHT30;57637;49.272;8.590;2023-05-01T10:53:43;17.13;57.72
70246;SHT30;57637;49.272;8.590;2023-05-01T10:59:00;16.81;58.32
70246;SHT30;57637;49.272;8.590;2023-05-01T11:01:39;17.30;58.65
70246;SHT30;57637;49.272;8.590;2023-05-01T11:09:38;16.84;57.89
70246;SHT30;57637;49.272;8.590;2023-05-01T11:12:11;17.17;56.53
70246;SHT30;57637;49.272;8.590;2023-05-01T11:20:44;17.38;56.79
70246;SHT30;57637;49.272;8.590;2023-05-01T11:23:00;17.39;56.35
70246;SHT30;57637;49.272;8.590;2023-05-01T11:25:27;18.30;55.19
70246;SHT30;57637;49.272;8.590;2023-05-01T11:28:00;18.70;55.03
70246;SHT30;57637;49.272;8.590;2023-05-01T11:30:37;18.91;54.39
70246;SHT30;57637;49.272;8.590;2023-05-01T11:33:03;19.48;53.90
70246;SHT30;57637;49.272;8.590;2023-05-01T11:35:29;19.76;53.05
70246;SHT30;57637;49.272;8.590;2023-05-01T11:37:55;19.82;52.93
70246;SHT30;57637;49.272;8.590;2023-05-01T11:43:03;19.48;54.46
70246;SHT30;57637;49.272;8.590;2023-05-01T11:45:31;19.70;53.25
70246;SHT30;57637;49.272;8.590;2023-05-01T11:47:57;19.87;52.57
70246;SHT30;57637;49.272;8.590;2023-05-01T11:50:30;19.55;53.47
70246;SHT30;57637;49.272;8.590;2023-05-01T11:52:57;19.42;54.04
70246;SHT30;57637;49.272;8.590;2023-05-01T11:55:32;20.07;52.72
70246;SHT30;57637;49.272;8.590;2023-05-01T11:57:59;19.93;52.02
70246;SHT30;57637;49.272;8.590;2023-05-01T12:00:27;20.12;52.06
70246;SHT30;57637;49.272;8.590;2023-05-01T12:03:00;20.24;52.14
70246;SHT30;57637;49.272;8.590;2023-05-01T12:05:27;20.54;51.90
70246;SHT30;57637;49.272;8.590;2023-05-01T12:08:12;20.58;52.00
70246;SHT30;57637;49.272;8.590;2023-05-01T12:10:49;20.74;52.44
70246;SHT30;57637;49.272;8.590;2023-05-01T12:13:16;21.32;51.67
70246;SHT30;57637;49.272;8.590;2023-05-01T12:15:46;21.49;50.60
70246;SHT30;57637;49.272;8.590;2023-05-01T12:18:14;21.20;52.29
70246;SHT30;57637;49.272;8.590;2023-05-01T12:20:44;21.25;51.99
70246;SHT30;57637;49.272;8.590;2023-05-01T12:23:12;21.33;52.89
70246;SHT30;57637;49.272;8.590;2023-05-01T12:25:40;21.10;51.61
70246;SHT30;57637;49.272;8.590;2023-05-01T12:28:07;21.25;51.10
70246;SHT30;57637;49.272;8.590;2023-05-01T12:30:35;21.16;51.11
70246;SHT30;57637;49.272;8.590;2023-05-01T12:33:22;21.47;51.27
70246;SHT30;57637;49.272;8.590;2023-05-01T12:35:47;21.40;51.76
70246;SHT30;57637;49.272;8.590;2023-05-01T12:38:15;21.60;51.87
70246;SHT30;57637;49.272;8.590;2023-05-01T12:43:17;21.29;51.51
70246;SHT30;57637;49.272;8.590;2023-05-01T12:45:43;21.29;50.85
70246;SHT30;57637;49.272;8.590;2023-05-01T12:48:10;21.39;50.88
70246;SHT30;57637;49.272;8.590;2023-05-01T12:50:37;21.42;50.45
70246;SHT30;57637;49.272;8.590;2023-05-01T12:53:03;20.96;51.65
70246;SHT30;57637;49.272;8.590;2023-05-01T12:55:29;21.06;50.91
70246;SHT30;57637;49.272;8.590;2023-05-01T12:57:54;21.45;50.43
70246;SHT30;57637;49.272;8.590;2023-05-01T13:00:20;21.35;51.67
70246;SHT30;57637;49.272;8.590;2023-05-01T13:02:45;21.26;50.76
70246;SHT30;57637;49.272;8.590;2023-05-01T13:05:12;21.30;49.15
70246;SHT30;57637;49.272;8.590;2023-05-01T13:07:37;21.05;48.66
70246;SHT30;57637;49.272;8.590;2023-05-01T13:10:05;21.00;48.62
70246;SHT30;57637;49.272;8.590;2023-05-01T13:12:31;21.08;48.84
70246;SHT30;57637;49.272;8.590;2023-05-01T13:14:57;20.88;48.70
70246;SHT30;57637;49.272;8.590;2023-05-01T13:17:27;20.88;48.84
70246;SHT30;57637;49.272;8.590;2023-05-01T13:19:55;20.95;47.87
70246;SHT30;57637;49.272;8.590;2023-05-01T13:22:34;21.16;47.64
70246;SHT30;57637;49.272;8.590;2023-05-01T13:25:01;21.22;48.37
70246;SHT30;57637;49.272;8.590;2023-05-01T13:27:38;21.16;47.56
70246;SHT30;57637;49.272;8.590;2023-05-01T13:30:04;20.99;47.56
70246;SHT30;57637;49.272;8.590;2023-05-01T13:32:30;20.99;48.01
70246;SHT30;57637;49.272;8.590;2023-05-01T13:34:59;21.18;48.11
70246;SHT30;57637;49.272;8.590;2023-05-01T13:37:25;21.13;48.59
70246;SHT30;57637;49.272;8.590;2023-05-01T13:39:52;21.09;46.84
70246;SHT30;57637;49.272;8.590;2023-05-01T13:42:22;21.12;47.35
70246;SHT30;57637;49.272;8.590;2023-05-01T13:44:55;20.96;47.31
70246;SHT30;57637;49.272;8.590;2023-05-01T13:47:21;20.01;48.52
70246;SHT30;57637;49.272;8.590;2023-05-01T13:49:51;20.74;48.26
70246;SHT30;57637;49.272;8.590;2023-05-01T13:52:17;21.16;47.54
70246;SHT30;57637;49.272;8.590;2023-05-01T13:54:44;20.94;45.67
70246;SHT30;57637;49.272;8.590;2023-05-01T13:57:10;19.70;47.92
70246;SHT30;57637;49.272;8.590;2023-05-01T13:59:40;19.79;48.14
70246;SHT30;57637;49.272;8.590;2023-05-01T14:02:28;20.41;48.69
70246;SHT30;57637;49.272;8.590;2023-05-01T14:04:53;21.02;46.22
70246;SHT30;57637;49.272;8.590;2023-05-01T14:07:22;20.95;47.48
70246;SHT30;57637;49.272;8.590;2023-05-01T14:09:52;21.10;46.00
70246;SHT30;57637;49.272;8.590;2023-05-01T14:12:19;20.71;46.88
70246;SHT30;57637;49.272;8.590;2023-05-01T14:14:48;21.25;47.04
70246;SHT30;57637;49.272;8.590;2023-05-01T14:17:14;21.12;46.35
70246;SHT30;57637;49.272;8.590;2023-05-01T14:19:39;21.33;45.93
70246;SHT30;57637;49.272;8.590;2023-05-01T14:22:08;20.74;47.83
70246;SHT30;57637;49.272;8.590;2023-05-01T14:24:39;20.68;49.05
70246;SHT30;57637;49.272;8.590;2023-05-01T14:27:08;20.37;48.66
70246;SHT30;57637;49.272;8.590;2023-05-01T14:29:34;19.76;47.56
70246;SHT30;57637;49.272;8.590;2023-05-01T14:32:03;19.59;49.08
70246;SHT30;57637;49.272;8.590;2023-05-01T14:34:29;19.62;49.42
70246;SHT30;57637;49.272;8.590;2023-05-01T14:36:55;19.79;46.37
70246;SHT30;57637;49.272;8.590;2023-05-01T14:39:22;19.97;47.63
70246;SHT30;57637;49.272;8.590;2023-05-01T14:41:49;19.98;48.17
70246;SHT30;57637;49.272;8.590;2023-05-01T14:44:15;20.31;48.06
70246;SHT30;57637;49.272;8.590;2023-05-01T14:46:44;19.61;49.93
70246;SHT30;57637;49.272;8.590;2023-05-01T14:49:16;19.46;50.86
70246;SHT30;57637;49.272;8.590;2023-05-01T14:51:46;19.19;51.84
70246;SHT30;57637;49.272;8.590;2023-05-01T14:54:13;19.04;50.74
70246;SHT30;57637;49.272;8.590;2023-05-01T14:56:39;19.42;50.81
70246;SHT30;57637;49.272;8.590;2023-05-01T14:59:07;19.19;49.34
70246;SHT30;57637;49.272;8.590;2023-05-01T15:01:32;19.35;48.50
70246;SHT30;57637;49.272;8.590;2023-05-01T15:03:57;19.22;47.88
70246;SHT30;57637;49.272;8.590;2023-05-01T15:06:23;19.74;45.99
70246;SHT30;57637;49.272;8.590;2023-05-01T15:08:49;19.82;46.57
70246;SHT30;57637;49.272;8.590;2023-05-01T15:11:15;19.56;48.38
70246;SHT30;57637;49.272;8.590;2023-05-01T15:13:42;19.70;48.19
70246;SHT30;57637;49.272;8.590;2023-05-01T15:16:09;19.29;47.32
70246;SHT30;57637;49.272;8.590;2023-05-01T15:18:37;18.83;47.74
70246;SHT30;57637;49.272;8.590;2023-05-01T15:21:03;18.80;48.38
70246;SHT30;57637;49.272;8.590;2023-05-01T15:23:29;18.75;48.31
70246;SHT30;57637;49.272;8.590;2023-05-01T15:25:55;19.00;48.15
70246;SHT30;57637;49.272;8.590;2023-05-01T15:28:21;18.56;48.40
70246;SHT30;57637;49.272;8.590;2023-05-01T15:30:48;19.00;48.45
70246;SHT30;57637;49.272;8.590;2023-05-01T15:33:16;19.08;48.57
70246;SHT30;57637;49.272;8.590;2023-05-01T15:35:42;19.51;47.96
70246;SHT30;57637;49.272;8.590;2023-05-01T15:38:08;19.23;47.97
70246;SHT30;57637;49.272;8.590;2023-05-01T15:40:33;19.55;48.28
70246;SHT30;57637;49.272;8.590;2023-05-01T15:42:59;19.53;48.77
70246;SHT30;57637;49.272;8.590;2023-05-01T15:45:25;19.59;49.15
70246;SHT30;57637;49.272;8.590;2023-05-01T15:47:51;19.69;49.49
70246;SHT30;57637;49.272;8.590;2023-05-01T15:50:17;19.72;49.55
70246;SHT30;57637;49.272;8.590;2023-05-01T15:52:43;19.63;50.05
70246;SHT30;57637;49.272;8.590;2023-05-01T15:55:08;19.69;50.34
70246;SHT30;57637;49.272;8.590;2023-05-01T15:57:34;19.45;51.41
70246;SHT30;57637;49.272;8.590;2023-05-01T15:59:59;19.65;51.31
70246;SHT30;57637;49.272;8.590;2023-05-01T16:02:25;19.56;52.03
70246;SHT30;57637;49.272;8.590;2023-05-01T16:04:55;19.49;52.08
70246;SHT30;57637;49.272;8.590;2023-05-01T16:07:20;19.66;52.11
70246;SHT30;57637;49.272;8.590;2023-05-01T16:09:46;19.70;52.45
70246;SHT30;57637;49.272;8.590;2023-05-01T16:12:11;19.62;53.08
70246;SHT30;57637;49.272;8.590;2023-05-01T16:14:40;19.67;53.76
70246;SHT30;57637;49.272;8.590;2023-05-01T16:17:06;19.63;54.48